OOEHY BGBW-CYYR
Flight info
| Callsign | OOEHY |
|---|---|
| Flight time | N/A |
| Altitude | 10000 |
| Route | NA DCT H5851 DCT DORYY/N0109F040 |
| Aircraft | C172/L-SFG/C |
Departure
| Time | 2026-04-16 13:51 |
|---|---|
| Airport | Narsarsuaq Airport (BGBW) |
Arrival
| Time | N/A |
|---|---|
| Airport | Goose Bay Airport (CYYR) |
| Time | Latitude | Longitude | Altitude | Speed | Heading |
|---|---|---|---|---|---|
| 2026-04-16 13:51 | 61.04093 | -45.70116 | 4071 ft | 78 kts | 226° |
| 2026-04-16 13:51 | 61.03731 | -45.70969 | 4191 ft | 79 kts | 226° |
| 2026-04-16 13:51 | 61.03370 | -45.71820 | 4309 ft | 79 kts | 226° |
| 2026-04-16 13:51 | 61.03003 | -45.72683 | 4426 ft | 79 kts | 226° |
| 2026-04-16 13:52 | 61.02833 | -45.73083 | 4480 ft | 79 kts | 226° |
| 2026-04-16 13:52 | 61.02656 | -45.73505 | 4774 ft | 77 kts | 224° |
| 2026-04-16 13:52 | 61.02301 | -45.74346 | 4895 ft | 78 kts | 223° |
| 2026-04-16 13:52 | 61.01945 | -45.75182 | 5013 ft | 78 kts | 223° |
| 2026-04-16 13:53 | 61.01585 | -45.76027 | 5139 ft | 78 kts | 223° |
| 2026-04-16 13:53 | 61.01228 | -45.76864 | 5267 ft | 78 kts | 223° |
| 2026-04-16 13:53 | 61.00866 | -45.77712 | 5387 ft | 79 kts | 223° |
| 2026-04-16 13:53 | 61.00507 | -45.78552 | 5505 ft | 79 kts | 222° |
| 2026-04-16 13:54 | 61.00143 | -45.79406 | 5623 ft | 79 kts | 223° |
| 2026-04-16 13:54 | 60.99781 | -45.80253 | 5737 ft | 79 kts | 223° |
| 2026-04-16 13:54 | 60.99414 | -45.81111 | 5851 ft | 79 kts | 222° |
| 2026-04-16 13:54 | 60.99054 | -45.81955 | 5972 ft | 79 kts | 222° |
| 2026-04-16 13:55 | 60.98687 | -45.82815 | 6092 ft | 79 kts | 222° |
| 2026-04-16 13:55 | 60.98327 | -45.83660 | 6202 ft | 79 kts | 221° |
| 2026-04-16 13:55 | 60.97960 | -45.84517 | 6316 ft | 79 kts | 221° |
| 2026-04-16 13:55 | 60.97600 | -45.85359 | 6425 ft | 79 kts | 221° |
| 2026-04-16 13:56 | 60.97235 | -45.86209 | 6532 ft | 79 kts | 222° |
| 2026-04-16 13:56 | 60.96872 | -45.87058 | 6638 ft | 79 kts | 222° |
| 2026-04-16 13:56 | 60.96513 | -45.87897 | 6737 ft | 79 kts | 222° |
| 2026-04-16 13:56 | 60.96145 | -45.88755 | 6843 ft | 79 kts | 223° |
| 2026-04-16 13:57 | 60.95784 | -45.89598 | 6940 ft | 79 kts | 222° |
| 2026-04-16 13:57 | 60.95710 | -45.89771 | 6960 ft | 79 kts | 222° |
| 2026-04-16 13:57 | 60.95411 | -45.90467 | 7042 ft | 79 kts | 222° |
| 2026-04-16 13:58 | 60.94682 | -45.92167 | 7247 ft | 80 kts | 222° |
| 2026-04-16 13:58 | 60.94314 | -45.93023 | 7341 ft | 80 kts | 222° |
| 2026-04-16 13:58 | 60.93943 | -45.93889 | 7440 ft | 79 kts | 222° |
| 2026-04-16 13:58 | 60.93581 | -45.94730 | 7539 ft | 79 kts | 221° |
| 2026-04-16 13:59 | 60.93218 | -45.95577 | 7636 ft | 78 kts | 221° |
| 2026-04-16 13:59 | 60.92859 | -45.96407 | 7726 ft | 78 kts | 221° |
| 2026-04-16 13:59 | 60.92497 | -45.97248 | 7817 ft | 78 kts | 221° |
| 2026-04-16 13:59 | 60.92138 | -45.98079 | 7897 ft | 78 kts | 221° |
| 2026-04-16 14:00 | 60.91767 | -45.98943 | 7945 ft | 84 kts | 223° |
| 2026-04-16 14:00 | 60.91372 | -45.99884 | 7952 ft | 92 kts | 225° |
| 2026-04-16 14:00 | 60.90942 | -46.00937 | 7952 ft | 99 kts | 226° |
| 2026-04-16 14:00 | 60.90486 | -46.02055 | 7955 ft | 105 kts | 227° |
| 2026-04-16 14:01 | 60.90018 | -46.03196 | 7958 ft | 107 kts | 227° |
| 2026-04-16 14:01 | 60.89520 | -46.04391 | 7967 ft | 112 kts | 227° |
| 2026-04-16 14:01 | 60.89002 | -46.05624 | 7971 ft | 116 kts | 227° |
| 2026-04-16 14:01 | 60.88463 | -46.06907 | 7965 ft | 118 kts | 227° |
| 2026-04-16 14:02 | 60.87917 | -46.08189 | 7961 ft | 121 kts | 227° |
| 2026-04-16 14:02 | 60.87354 | -46.09501 | 7955 ft | 122 kts | 227° |
| 2026-04-16 14:02 | 60.86808 | -46.10775 | 7952 ft | 118 kts | 227° |
| 2026-04-16 14:02 | 60.86275 | -46.12011 | 7954 ft | 114 kts | 226° |
| 2026-04-16 14:03 | 60.85746 | -46.13228 | 7960 ft | 113 kts | 226° |
| 2026-04-16 14:03 | 60.85226 | -46.14426 | 7967 ft | 113 kts | 226° |
| 2026-04-16 14:03 | 60.84898 | -46.15178 | 7969 ft | 113 kts | 226° |
| 2026-04-16 14:03 | 60.84680 | -46.15680 | 7969 ft | 113 kts | 226° |
| 2026-04-16 14:04 | 60.84163 | -46.16878 | 7968 ft | 112 kts | 226° |
| 2026-04-16 14:04 | 60.83648 | -46.18077 | 7969 ft | 112 kts | 226° |
| 2026-04-16 14:04 | 60.83134 | -46.19278 | 7971 ft | 112 kts | 227° |
| 2026-04-16 14:04 | 60.82621 | -46.20482 | 7973 ft | 112 kts | 226° |
| 2026-04-16 14:05 | 60.82111 | -46.21672 | 7976 ft | 112 kts | 226° |
| 2026-04-16 14:05 | 60.81593 | -46.22877 | 7977 ft | 112 kts | 226° |
| 2026-04-16 14:05 | 60.81076 | -46.24071 | 7978 ft | 112 kts | 226° |
| 2026-04-16 14:05 | 60.80561 | -46.25261 | 7978 ft | 112 kts | 226° |
| 2026-04-16 14:06 | 60.80037 | -46.26467 | 7979 ft | 112 kts | 226° |
| 2026-04-16 14:06 | 60.79523 | -46.27649 | 7980 ft | 112 kts | 226° |
| 2026-04-16 14:06 | 60.79007 | -46.28834 | 7979 ft | 112 kts | 226° |
| 2026-04-16 14:06 | 60.78490 | -46.30022 | 7979 ft | 112 kts | 226° |
| 2026-04-16 14:07 | 60.77964 | -46.31226 | 7981 ft | 112 kts | 226° |
| 2026-04-16 14:07 | 60.77447 | -46.32408 | 7981 ft | 112 kts | 226° |
| 2026-04-16 14:07 | 60.76922 | -46.33609 | 7981 ft | 112 kts | 226° |
| 2026-04-16 14:07 | 60.76407 | -46.34788 | 7986 ft | 112 kts | 226° |
| 2026-04-16 14:08 | 60.75885 | -46.35982 | 7988 ft | 112 kts | 226° |
| 2026-04-16 14:08 | 60.75368 | -46.37163 | 7986 ft | 112 kts | 226° |
| 2026-04-16 14:08 | 60.74851 | -46.38347 | 7986 ft | 112 kts | 226° |
| 2026-04-16 14:08 | 60.74530 | -46.39079 | 7985 ft | 112 kts | 226° |
| 2026-04-16 14:09 | 60.74295 | -46.39616 | 7984 ft | 112 kts | 226° |